Time;durP1;ratioP1;P1;durP2;ratioP2;P2;SDS_P1;SDS_P2;PMS_P1;PMS_P2;Temp;Humidity;BMP_temperature;BMP_pressure;BME280_temperature;BME280_humidity;BME280_pressure;Samples;Min_cycle;Max_cycle;Signal;HPM_P1;HPM_P2
2024/02/21 00:00:48;;;;;;;;;;;;;;;8.06;74.81;101643.44;15836321;28;20040;-51
2024/02/21 00:08:21;;;;;;;4.95;1.60;;;;;;;7.81;75.43;101626.63;15861362;28;19923;-51
2024/02/21 00:15:56;;;;;;;0.00;0.00;;;;;;;8.15;74.56;101611.13;15846746;28;20035;-52
2024/02/21 00:23:30;;;;;;;0.45;0.40;;;;;;;8.01;74.63;101616.38;15844102;28;20089;-52
2024/02/21 00:31:10;;;;;;;0.93;0.68;;;;;;;8.00;74.31;101609.38;15847670;28;20048;-52
2024/02/21 00:38:44;;;;;;;2.88;1.70;;;;;;;8.12;74.19;101592.78;15861774;28;20282;-51
2024/02/21 00:46:20;;;;;;;0.10;0.10;;;;;;;7.92;74.59;101594.19;15841472;28;20078;-56
2024/02/21 00:53:54;;;;;;;0.13;0.10;;;;;;;8.01;74.46;101586.97;15845689;28;20113;-53
2024/02/21 01:01:30;;;;;;;0.00;0.00;;;;;;;8.01;74.69;101585.13;15838420;28;20044;-54
2024/02/21 01:09:04;;;;;;;0.93;0.90;;;;;;;8.05;73.39;101574.94;15847286;28;20441;-52
2024/02/21 01:16:39;;;;;;;5.75;1.50;;;;;;;8.03;73.86;101564.41;15855626;28;20059;-50
2024/02/21 01:24:14;;;;;;;0.88;0.88;;;;;;;7.94;73.15;101562.78;15832930;28;20392;-53
2024/02/21 01:31:49;;;;;;;0.17;0.17;;;;;;;7.95;73.49;101553.75;15861941;28;20044;-49
2024/02/21 01:39:23;;;;;;;0.38;0.38;;;;;;;7.89;74.43;101549.94;15852537;28;20048;-50
2024/02/21 01:46:58;;;;;;;0.55;0.28;;;;;;;8.05;73.63;101534.81;15814183;28;20563;-51
2024/02/21 01:54:32;;;;;;;0.00;0.00;;;;;;;8.01;74.43;101542.34;15824421;28;20094;-52
2024/02/21 02:02:08;;;;;;;0.00;0.00;;;;;;;7.98;75.09;101537.38;15851682;28;20052;-51
2024/02/21 02:09:44;;;;;;;0.17;0.17;;;;;;;7.65;76.48;101494.72;15856036;28;20040;-52
2024/02/21 02:17:19;;;;;;;0.00;0.00;;;;;;;7.52;78.93;101523.81;15848764;28;20580;-51
2024/02/21 02:24:54;;;;;;;0.00;0.00;;;;;;;7.51;79.59;101510.66;15830055;28;20055;-49
2024/02/21 02:32:27;;;;;;;0.00;0.00;;;;;;;7.64;80.21;101511.75;15855232;28;20070;-53
2024/02/21 02:40:02;;;;;;;;;;;;;;;7.82;78.58;101505.34;15844222;28;20057;-49
2024/02/21 02:47:37;;;;;;;0.00;0.00;;;;;;;7.65;79.90;101507.25;15857733;28;19926;-54
2024/02/21 02:55:13;;;;;;;0.00;0.00;;;;;;;7.29;81.78;101491.66;15847864;28;20109;-51
2024/02/21 03:02:49;;;;;;;0.10;0.10;;;;;;;7.53;82.39;101482.75;15807973;28;20051;-53
2024/02/21 03:10:29;;;;;;;0.00;0.00;;;;;;;7.24;84.34;101475.31;15844780;28;20028;-55
2024/02/21 03:18:03;;;;;;;0.00;0.00;;;;;;;7.33;84.01;101462.78;15843907;28;20052;-51
2024/02/21 03:25:39;;;;;;;0.00;0.00;;;;;;;7.30;84.80;101457.78;15827613;28;20036;-51
2024/02/21 03:33:13;;;;;;;0.13;0.13;;;;;;;7.37;84.86;101456.94;15864624;28;20047;-50
2024/02/21 03:40:48;;;;;;;0.15;0.15;;;;;;;7.35;85.00;101452.75;15851837;28;20043;-51
2024/02/21 03:48:22;;;;;;;0.98;0.50;;;;;;;7.08;86.46;101436.13;15842610;28;20557;-50
2024/02/21 03:56:07;;;;;;;0.00;0.00;;;;;;;7.15;86.94;101428.28;15859178;28;20418;-53
2024/02/21 04:03:44;;;;;;;0.00;0.00;;;;;;;7.43;85.71;101419.84;15828118;28;20308;-51
2024/02/21 04:11:19;;;;;;;0.03;0.03;;;;;;;7.19;85.99;101410.09;15857968;28;20052;-49
2024/02/21 04:18:54;;;;;;;0.00;0.00;;;;;;;6.91;88.11;101394.47;15841385;28;20040;-51
2024/02/21 04:26:30;;;;;;;0.00;0.00;;;;;;;7.11;86.90;101378.91;15840632;28;20071;-51
2024/02/21 04:34:06;;;;;;;0.00;0.00;;;;;;;7.13;86.40;101356.38;15829074;28;20040;-50
2024/02/21 04:41:47;;;;;;;0.15;0.15;;;;;;;6.99;87.08;101337.56;15854154;28;20039;-53
2024/02/21 04:49:23;;;;;;;0.00;0.00;;;;;;;6.97;87.39;101321.72;15858841;28;20040;-52
2024/02/21 04:57:07;;;;;;;0.00;0.00;;;;;;;7.09;86.47;101317.69;15836732;28;20527;-53
2024/02/21 05:04:44;;;;;;;0.00;0.00;;;;;;;6.80;87.92;101306.75;15807238;28;20591;-50
2024/02/21 05:12:19;;;;;;;0.00;0.00;;;;;;;7.23;86.26;101312.59;15857133;28;20046;-51
2024/02/21 05:19:53;;;;;;;0.00;0.00;;;;;;;6.96;87.22;101320.06;15822534;28;20106;-50
2024/02/21 05:27:29;;;;;;;0.00;0.00;;;;;;;7.22;86.92;101316.28;15856199;28;20718;-53
2024/02/21 05:35:06;;;;;;;0.63;0.57;;;;;;;7.22;85.52;101311.75;15821629;28;20051;-52
2024/02/21 05:42:46;;;;;;;0.00;0.00;;;;;;;7.15;86.19;101316.97;15834383;28;20059;-51
2024/02/21 05:50:21;;;;;;;0.00;0.00;;;;;;;7.29;86.10;101314.59;15837947;28;20040;-52
2024/02/21 05:57:57;;;;;;;0.10;0.10;;;;;;;7.54;85.53;101302.75;15859276;28;20495;-53
2024/02/21 06:05:31;;;;;;;0.00;0.00;;;;;;;7.14;87.26;101307.31;15843360;28;20488;-48
2024/02/21 06:13:07;;;;;;;0.20;0.20;;;;;;;7.39;85.87;101304.50;15865067;28;20134;-50
2024/02/21 06:20:43;;;;;;;0.00;0.00;;;;;;;7.63;84.13;101308.88;15867965;28;20371;-49
2024/02/21 06:28:21;;;;;;;0.17;0.17;;;;;;;7.17;86.17;101287.44;15862217;28;20054;-48
2024/02/21 06:35:56;;;;;;;2.83;1.00;;;;;;;7.39;85.55;101292.00;15868343;28;20063;-49
2024/02/21 06:43:33;;;;;;;0.40;0.35;;;;;;;7.43;86.10;101292.47;15866533;28;20059;-52
2024/02/21 06:51:08;;;;;;;0.00;0.00;;;;;;;7.32;85.77;101301.72;15864228;28;20075;-50
2024/02/21 06:58:43;;;;;;;0.55;0.50;;;;;;;7.53;84.78;101302.94;15865324;28;20438;-51
2024/02/21 07:06:18;;;;;;;0.00;0.00;;;;;;;7.20;85.94;101296.94;15851990;28;20039;-48
2024/02/21 07:13:53;;;;;;;1.15;0.52;;;;;;;7.40;85.32;101296.31;15868958;28;20561;-52
2024/02/21 07:21:29;;;;;;;0.00;0.00;;;;;;;7.31;84.36;101291.19;15857156;28;20040;-52
2024/02/21 07:29:04;;;;;;;0.13;0.13;;;;;;;7.43;83.97;101291.66;15861652;28;20077;-50
2024/02/21 07:36:38;;;;;;;0.00;0.00;;;;;;;7.49;83.57;101290.94;15833838;28;20151;-50
2024/02/21 07:44:13;;;;;;;0.38;0.35;;;;;;;7.33;83.49;101292.69;15850644;28;20270;-50
2024/02/21 07:51:49;;;;;;;0.25;0.25;;;;;;;7.62;82.81;101289.34;15850819;28;20040;-48
2024/02/21 07:59:24;;;;;;;;;;;;;;;7.38;83.20;101289.50;15825800;28;20055;-52
2024/02/21 08:07:02;;;;;;;0.15;0.15;;;;;;;7.36;82.97;101275.47;15817165;28;19920;-47
2024/02/21 08:14:37;;;;;;;0.15;0.15;;;;;;;7.86;80.75;101272.28;15839540;28;20039;-49
2024/02/21 08:22:11;;;;;;;0.00;0.00;;;;;;;7.84;81.24;101270.84;15860690;28;20051;-50
2024/02/21 08:29:47;;;;;;;0.35;0.35;;;;;;;7.96;81.34;101272.03;15807834;28;20036;-52
2024/02/21 08:37:24;;;;;;;0.00;0.00;;;;;;;8.27;79.56;101263.91;15842720;28;20126;-49
2024/02/21 08:44:59;;;;;;;0.28;0.28;;;;;;;8.61;78.43;101262.59;15841738;28;20041;-51
2024/02/21 08:52:36;;;;;;;0.20;0.20;;;;;;;8.50;79.85;101265.72;15841404;28;20046;-50
2024/02/21 09:00:12;;;;;;;0.30;0.30;;;;;;;9.37;76.77;101273.84;15811133;28;20477;-48
2024/02/21 09:07:47;;;;;;;0.30;0.30;;;;;;;8.81;77.67;101282.44;15833276;28;20036;-54
2024/02/21 09:15:24;;;;;;;0.00;0.00;;;;;;;8.75;77.59;101263.59;15844381;28;20067;-49
2024/02/21 09:22:57;;;;;;;1.20;1.10;;;;;;;9.07;76.66;101265.88;15804581;28;20066;-51
2024/02/21 09:30:34;;;;;;;1.25;1.15;;;;;;;9.11;77.06;101256.44;15849101;28;20617;-50
2024/02/21 09:38:09;;;;;;;3.53;1.80;;;;;;;9.49;74.45;101248.22;15823514;28;20074;-52
2024/02/21 09:45:48;;;;;;;0.30;0.30;;;;;;;9.66;73.52;101238.91;15793069;28;20048;-52
2024/02/21 09:53:25;;;;;;;0.20;0.20;;;;;;;9.72;73.55;101248.03;15831709;28;20131;-53
2024/02/21 10:01:00;;;;;;;0.15;0.15;;;;;;;9.55;74.93;101238.56;15851707;28;20415;-51
2024/02/21 10:08:34;;;;;;;1.00;0.47;;;;;;;9.64;73.95;101246.28;15798960;22;20372;-48
2024/02/21 10:16:09;;;;;;;0.00;0.00;;;;;;;9.45;74.67;101239.72;15744040;28;20059;-49
2024/02/21 10:23:45;;;;;;;0.52;0.50;;;;;;;9.40;74.41;101244.81;15729090;28;20505;-49
2024/02/21 10:31:27;;;;;;;0.20;0.20;;;;;;;9.46;73.83;101248.59;15732649;28;20138;-49
2024/02/21 10:39:01;;;;;;;0.00;0.00;;;;;;;9.59;73.16;101245.22;15731848;28;20078;-49
2024/02/21 10:46:38;;;;;;;0.30;0.15;;;;;;;10.00;73.36;101223.94;15732086;28;20543;-49
2024/02/21 10:54:30;;;;;;;0.47;0.45;;;;;;;9.91;73.23;101238.50;15731129;28;20047;-50
2024/02/21 11:02:05;;;;;;;0.10;0.10;;;;;;;9.42;75.43;101229.41;15739373;28;20127;-48
2024/02/21 11:09:38;;;;;;;0.10;0.10;;;;;;;10.01;73.29;101200.63;15741443;28;20044;-51
2024/02/21 11:17:17;;;;;;;0.00;0.00;;;;;;;10.69;71.84;101186.41;15724761;28;20079;-48
2024/02/21 11:24:51;;;;;;;0.10;0.10;;;;;;;10.84;69.38;101154.03;15742997;28;20063;-50
2024/02/21 11:32:27;;;;;;;0.05;0.05;;;;;;;10.65;68.09;101158.28;15740310;28;20079;-50
2024/02/21 11:40:02;;;;;;;0.00;0.00;;;;;;;10.63;69.04;101151.47;15740035;28;20051;-51
2024/02/21 11:47:41;;;;;;;0.73;0.55;;;;;;;11.15;67.10;101118.56;15739550;28;20036;-47
2024/02/21 11:55:15;;;;;;;0.20;0.20;;;;;;;12.27;64.36;101097.19;15740473;28;20044;-51
2024/02/21 12:02:51;;;;;;;0.10;0.10;;;;;;;13.08;60.80;101083.88;15740706;28;20048;-49
2024/02/21 12:10:25;;;;;;;3.63;0.22;;;;;;;11.83;64.29;101093.34;15738620;28;20063;-48
2024/02/21 12:18:02;;;;;;;0.20;0.20;;;;;;;11.92;64.41;101073.25;15738408;28;20041;-47
2024/02/21 12:25:37;;;;;;;0.88;0.40;;;;;;;12.07;62.16;101062.25;15737643;28;20075;-53
2024/02/21 12:33:14;;;;;;;0.00;0.00;;;;;;;11.39;64.36;101052.63;15738419;28;20044;-50
2024/02/21 12:40:51;;;;;;;0.17;0.17;;;;;;;11.63;64.93;101044.94;15738377;28;20049;-48
2024/02/21 12:48:28;;;;;;;0.75;0.43;;;;;;;11.38;64.73;101039.41;15734626;28;20036;-50
2024/02/21 12:56:04;;;;;;;3.70;1.85;;;;;;;12.06;63.95;101029.13;15733298;28;20036;-48
2024/02/21 13:03:42;;;;;;;2.10;1.45;;;;;;;11.91;63.30;101015.94;15735996;28;20109;-48
2024/02/21 13:11:20;;;;;;;0.20;0.20;;;;;;;12.46;62.91;101008.25;15717767;28;20570;-53
2024/02/21 13:18:56;;;;;;;0.00;0.00;;;;;;;12.87;59.40;100984.53;15736248;28;20044;-50
2024/02/21 13:26:31;;;;;;;0.00;0.00;;;;;;;12.40;59.66;100986.72;15734822;28;20045;-49
2024/02/21 13:34:08;;;;;;;0.17;0.17;;;;;;;12.07;60.97;100968.06;15734176;28;20040;-49
2024/02/21 13:41:43;;;;;;;1.33;0.68;;;;;;;11.63;62.55;100970.50;15735169;28;20049;-50
2024/02/21 13:49:21;;;;;;;0.00;0.00;;;;;;;11.86;62.20;100969.22;15733978;28;20048;-47
2024/02/21 13:56:58;;;;;;;0.30;0.10;;;;;;;11.78;62.84;100955.97;15731898;28;20048;-49
2024/02/21 14:04:33;;;;;;;0.65;0.65;;;;;;;11.78;62.13;100962.16;15734922;28;20044;-51
2024/02/21 14:12:08;;;;;;;2.92;0.55;;;;;;;12.12;61.91;100950.22;15734952;28;20048;-51
2024/02/21 14:19:44;;;;;;;4.35;0.68;;;;;;;11.60;63.27;100952.09;15732681;28;20045;-51
2024/02/21 14:27:26;;;;;;;0.00;0.00;;;;;;;11.73;62.83;100946.66;15731983;28;20132;-52
2024/02/21 14:35:01;;;;;;;0.30;0.20;;;;;;;11.88;62.12;100932.16;15738351;28;20406;-49
2024/02/21 14:42:35;;;;;;;0.00;0.00;;;;;;;11.75;62.06;100924.97;15743564;28;20094;-49
2024/02/21 14:50:11;;;;;;;0.55;0.55;;;;;;;11.61;62.07;100923.34;15741542;28;20367;-48
2024/02/21 14:57:45;;;;;;;0.00;0.00;;;;;;;11.39;62.86;100912.06;15741824;28;20037;-49
2024/02/21 15:05:23;;;;;;;0.00;0.00;;;;;;;11.63;62.28;100894.38;15724856;28;20033;-49
2024/02/21 15:12:57;;;;;;;0.00;0.00;;;;;;;11.53;62.03;100877.88;15767275;28;20113;-48
2024/02/21 15:20:32;;;;;;;0.00;0.00;;;;;;;11.10;63.32;100868.53;15733803;28;20140;-48
2024/02/21 15:28:07;;;;;;;0.00;0.00;;;;;;;10.98;62.94;100846.84;15735770;28;20196;-49
2024/02/21 15:35:43;;;;;;;0.10;0.10;;;;;;;10.81;63.42;100834.88;15690041;28;20041;-49
2024/02/21 15:43:20;;;;;;;0.20;0.20;;;;;;;10.72;63.13;100811.97;15740826;28;20561;-48
2024/02/21 15:50:56;;;;;;;0.20;0.10;;;;;;;10.67;63.57;100796.50;15738639;28;20123;-48
2024/02/21 15:58:31;;;;;;;0.10;0.10;;;;;;;10.45;63.14;100784.38;15738042;28;20090;-51
2024/02/21 16:06:06;;;;;;;0.00;0.00;;;;;;;10.35;63.20;100783.94;15788571;22;20048;-52
2024/02/21 16:13:41;;;;;;;1.35;0.70;;;;;;;10.30;62.28;100767.66;15805466;28;20135;-54
2024/02/21 16:21:17;;;;;;;0.10;0.08;;;;;;;10.30;62.22;100770.34;15783450;28;20044;-51
2024/02/21 16:28:50;;;;;;;0.30;0.15;;;;;;;10.03;63.02;100762.28;15808537;28;20097;-52
2024/02/21 16:36:26;;;;;;;0.68;0.68;;;;;;;9.52;64.54;100765.50;15790331;28;20032;-51
2024/02/21 16:44:04;;;;;;;0.10;0.10;;;;;;;9.34;65.41;100767.94;15789549;28;20040;-52
2024/02/21 16:51:40;;;;;;;0.00;0.00;;;;;;;9.09;66.27;100763.13;15800779;28;20036;-52
2024/02/21 16:59:14;;;;;;;0.35;0.35;;;;;;;9.43;65.61;100764.88;15787789;28;20052;-53
2024/02/21 17:06:52;;;;;;;0.03;0.03;;;;;;;8.95;67.02;100748.00;15776698;28;20044;-51
2024/02/21 17:14:27;;;;;;;0.00;0.00;;;;;;;8.97;67.49;100735.25;15738026;28;20565;-51
2024/02/21 17:22:02;;;;;;;0.03;0.03;;;;;;;8.74;68.04;100722.16;15781224;28;20513;-50
2024/02/21 17:29:39;;;;;;;0.10;0.10;;;;;;;8.54;68.86;100702.53;15742515;28;20040;-52
2024/02/21 17:37:23;;;;;;;0.00;0.00;;;;;;;8.71;68.96;100684.28;15793764;28;20493;-52
2024/02/21 17:44:58;;;;;;;0.00;0.00;;;;;;;8.68;68.86;100680.16;15784830;28;20334;-51
2024/02/21 17:52:33;;;;;;;0.00;0.00;;;;;;;8.58;68.85;100677.00;15802578;28;20043;-52
2024/02/21 18:00:08;;;;;;;0.00;0.00;;;;;;;8.54;69.03;100670.44;15784807;28;20526;-52
2024/02/21 18:07:49;;;;;;;0.00;0.00;;;;;;;8.62;68.26;100646.97;15798601;28;20103;-50
2024/02/21 18:15:23;;;;;;;0.08;0.08;;;;;;;8.16;70.20;100626.19;15820896;28;20055;-50
2024/02/21 18:23:00;;;;;;;0.00;0.00;;;;;;;8.49;69.54;100624.72;15788244;28;20044;-54
2024/02/21 18:30:35;;;;;;;0.40;0.40;;;;;;;8.33;70.62;100601.78;15765170;28;20043;-52
2024/02/21 18:38:10;;;;;;;0.82;0.70;;;;;;;8.07;72.01;100592.59;15801987;28;20086;-52
2024/02/21 18:45:44;;;;;;;3.08;1.65;;;;;;;8.27;71.90;100554.44;15821899;28;20040;-52
2024/02/21 18:53:20;;;;;;;0.47;0.47;;;;;;;8.30;71.87;100535.31;15804188;28;20081;-52
2024/02/21 19:00:57;;;;;;;2.20;1.00;;;;;;;8.52;71.75;100512.78;15776204;28;20110;-53
2024/02/21 19:08:36;;;;;;;0.68;0.68;;;;;;;8.54;72.00;100485.84;15762275;28;20489;-53
2024/02/21 19:16:10;;;;;;;0.52;0.52;;;;;;;8.15;73.54;100493.50;15756809;28;20040;-53
2024/02/21 19:23:45;;;;;;;0.00;0.00;;;;;;;8.63;72.33;100503.34;15791326;28;20512;-53
2024/02/21 19:31:21;;;;;;;0.65;0.65;;;;;;;8.04;73.94;100480.72;15787011;28;20403;-54
2024/02/21 19:38:56;;;;;;;0.55;0.55;;;;;;;8.02;74.50;100452.53;15790237;28;20040;-54
2024/02/21 19:46:31;;;;;;;1.00;0.80;;;;;;;8.28;73.23;100439.25;15776910;28;20569;-53
2024/02/21 19:54:07;;;;;;;1.52;0.55;;;;;;;8.47;73.08;100448.38;15805045;28;20040;-53
2024/02/21 20:01:40;;;;;;;0.10;0.10;;;;;;;8.38;72.51;100434.34;15763530;28;20074;-53
2024/02/21 20:09:15;;;;;;;0.30;0.15;;;;;;;8.33;72.36;100423.41;15748990;28;20075;-55
2024/02/21 20:16:49;;;;;;;0.00;0.00;;;;;;;8.45;71.30;100394.25;15782751;28;20493;-53
2024/02/21 20:24:24;;;;;;;0.22;0.22;;;;;;;8.26;72.06;100376.31;15754845;28;20052;-53
2024/02/21 20:32:01;;;;;;;0.00;0.00;;;;;;;8.03;72.57;100358.81;15779569;28;20127;-53
2024/02/21 20:39:41;;;;;;;0.17;0.17;;;;;;;8.04;72.39;100344.41;15802499;28;20040;-52
2024/02/21 20:47:15;;;;;;;0.10;0.10;;;;;;;8.24;71.33;100340.94;15783257;28;20557;-51
2024/02/21 20:54:54;;;;;;;0.15;0.15;;;;;;;8.33;70.66;100332.50;15784363;28;20424;-54
2024/02/21 21:02:28;;;;;;;0.00;0.00;;;;;;;8.53;69.11;100327.16;15774230;28;20401;-49
2024/02/21 21:10:08;;;;;;;0.30;0.30;;;;;;;8.60;68.44;100325.31;15768543;28;20040;-51
2024/02/21 21:17:44;;;;;;;0.00;0.00;;;;;;;8.16;68.42;100283.97;15777326;28;20056;-51
2024/02/21 21:25:19;;;;;;;0.15;0.15;;;;;;;8.55;67.54;100324.31;15761715;28;20044;-51
2024/02/21 21:32:52;;;;;;;0.20;0.20;;;;;;;8.41;68.21;100324.31;15735841;28;20398;-53
2024/02/21 21:40:29;;;;;;;1.30;0.28;;;;;;;8.61;66.74;100297.53;15742470;28;20582;-55
2024/02/21 21:48:02;;;;;;;0.00;0.00;;;;;;;8.84;65.85;100291.72;15764737;28;20150;-53
2024/02/21 21:55:38;;;;;;;0.10;0.10;;;;;;;8.93;64.70;100278.94;15775519;28;20056;-53
2024/02/21 22:03:13;;;;;;;0.00;0.00;;;;;;;8.82;65.27;100277.75;15777362;28;20394;-55
2024/02/21 22:10:50;;;;;;;0.30;0.25;;;;;;;8.67;65.58;100264.63;15807164;22;20079;-50
2024/02/21 22:18:24;;;;;;;0.00;0.00;;;;;;;8.84;64.96;100256.94;15795349;28;20381;-47
2024/02/21 22:25:59;;;;;;;0.22;0.22;;;;;;;8.66;65.32;100238.88;15790806;28;20444;-49
2024/02/21 22:33:32;;;;;;;0.85;0.35;;;;;;;8.72;64.45;100199.78;15790377;28;20048;-48
2024/02/21 22:41:07;;;;;;;0.63;0.63;;;;;;;8.86;64.07;100211.22;15775327;28;20063;-46
2024/02/21 22:48:45;;;;;;;0.20;0.20;;;;;;;8.87;63.73;100194.16;15777641;28;20036;-46
2024/02/21 22:56:21;;;;;;;0.00;0.00;;;;;;;8.94;63.01;100182.38;15793418;28;20032;-48
2024/02/21 23:03:54;;;;;;;0.75;0.73;;;;;;;9.03;62.93;100168.75;15804079;28;20036;-47
2024/02/21 23:11:30;;;;;;;0.70;0.70;;;;;;;9.01;62.56;100150.22;15784807;28;20282;-52
2024/02/21 23:19:04;;;;;;;0.03;0.03;;;;;;;9.07;62.31;100141.31;15797570;28;20044;-46
2024/02/21 23:26:40;;;;;;;0.08;0.08;;;;;;;8.97;62.58;100134.81;15803100;28;20054;-45
2024/02/21 23:34:14;;;;;;;0.25;0.25;;;;;;;9.07;61.83;100121.78;15800417;28;20085;-51
2024/02/21 23:41:49;;;;;;;0.00;0.00;;;;;;;9.15;62.26;100103.59;15798336;28;20143;-51
2024/02/21 23:49:23;;;;;;;0.10;0.10;;;;;;;8.54;63.42;100098.78;15799137;28;20052;-45
2024/02/21 23:56:58;;;;;;;0.80;0.25;;;;;;;8.93;62.04;100086.22;15802705;28;20093;-46
